sensor_id;sensor_type;location;lat;lon;timestamp;temperature;humidity
46508;DHT22;32223;53.654;10.014;2023-04-01T00:01:25;9.80;99.90
46508;DHT22;32223;53.654;10.014;2023-04-01T00:03:51;9.70;99.90
46508;DHT22;32223;53.654;10.014;2023-04-01T00:06:18;9.80;99.90
46508;DHT22;32223;53.654;10.014;2023-04-01T00:08:44;9.80;99.90
46508;DHT22;32223;53.654;10.014;2023-04-01T00:11:10;9.70;99.90
46508;DHT22;32223;53.654;10.014;2023-04-01T00:13:36;9.80;99.90
46508;DHT22;32223;53.654;10.014;2023-04-01T00:16:02;9.70;99.90
46508;DHT22;32223;53.654;10.014;2023-04-01T00:18:29;9.70;99.90
46508;DHT22;32223;53.654;10.014;2023-04-01T00:20:55;9.70;99.90
46508;DHT22;32223;53.654;10.014;2023-04-01T00:23:21;9.70;99.90
46508;DHT22;32223;53.654;10.014;2023-04-01T00:25:47;9.70;99.90
46508;DHT22;32223;53.654;10.014;2023-04-01T00:28:18;9.70;99.90
46508;DHT22;32223;53.654;10.014;2023-04-01T00:30:44;9.70;99.90
46508;DHT22;32223;53.654;10.014;2023-04-01T00:33:10;9.70;99.90
46508;DHT22;32223;53.654;10.014;2023-04-01T00:35:36;9.70;99.90
46508;DHT22;32223;53.654;10.014;2023-04-01T00:38:02;9.70;99.90
46508;DHT22;32223;53.654;10.014;2023-04-01T00:40:33;9.70;99.90
46508;DHT22;32223;53.654;10.014;2023-04-01T00:42:59;9.70;99.90
46508;DHT22;32223;53.654;10.014;2023-04-01T00:45:35;9.70;99.90
46508;DHT22;32223;53.654;10.014;2023-04-01T00:48:09;9.70;99.90
46508;DHT22;32223;53.654;10.014;2023-04-01T00:50:37;9.70;99.90
46508;DHT22;32223;53.654;10.014;2023-04-01T00:53:05;9.60;99.90
46508;DHT22;32223;53.654;10.014;2023-04-01T00:55:34;9.60;99.90
46508;DHT22;32223;53.654;10.014;2023-04-01T00:58:02;9.60;99.90
46508;DHT22;32223;53.654;10.014;2023-04-01T01:00:29;9.60;99.90
46508;DHT22;32223;53.654;10.014;2023-04-01T01:02:54;9.60;99.90
46508;DHT22;32223;53.654;10.014;2023-04-01T01:05:26;9.60;99.90
46508;DHT22;32223;53.654;10.014;2023-04-01T01:10:49;9.60;99.90
46508;DHT22;32223;53.654;10.014;2023-04-01T01:13:38;9.60;99.90
46508;DHT22;32223;53.654;10.014;2023-04-01T01:17:13;9.60;99.90
46508;DHT22;32223;53.654;10.014;2023-04-01T01:31:04;9.50;99.90
46508;DHT22;32223;53.654;10.014;2023-04-01T01:33:48;9.50;99.90
46508;DHT22;32223;53.654;10.014;2023-04-01T01:36:17;9.50;99.90
46508;DHT22;32223;53.654;10.014;2023-04-01T01:38:45;9.50;99.90
46508;DHT22;32223;53.654;10.014;2023-04-01T01:41:12;9.50;99.90
46508;DHT22;32223;53.654;10.014;2023-04-01T01:43:42;9.50;99.90
46508;DHT22;32223;53.654;10.014;2023-04-01T01:46:12;9.50;99.90
46508;DHT22;32223;53.654;10.014;2023-04-01T01:48:40;9.50;99.90
46508;DHT22;32223;53.654;10.014;2023-04-01T01:51:07;9.50;99.90
46508;DHT22;32223;53.654;10.014;2023-04-01T01:53:33;9.50;99.90
46508;DHT22;32223;53.654;10.014;2023-04-01T01:55:58;9.40;99.90
46508;DHT22;32223;53.654;10.014;2023-04-01T02:00:59;9.50;99.90
46508;DHT22;32223;53.654;10.014;2023-04-01T02:03:29;9.50;99.90
46508;DHT22;32223;53.654;10.014;2023-04-01T02:05:59;9.50;99.90
46508;DHT22;32223;53.654;10.014;2023-04-01T02:08:50;9.40;99.90
46508;DHT22;32223;53.654;10.014;2023-04-01T02:11:19;9.40;99.90
46508;DHT22;32223;53.654;10.014;2023-04-01T02:14:03;9.40;99.90
46508;DHT22;32223;53.654;10.014;2023-04-01T02:16:44;9.40;99.90
46508;DHT22;32223;53.654;10.014;2023-04-01T02:19:12;9.40;99.90
46508;DHT22;32223;53.654;10.014;2023-04-01T02:21:39;9.40;99.90
46508;DHT22;32223;53.654;10.014;2023-04-01T02:24:10;9.40;99.90
46508;DHT22;32223;53.654;10.014;2023-04-01T02:26:38;9.40;99.90
46508;DHT22;32223;53.654;10.014;2023-04-01T02:29:07;9.40;99.90
46508;DHT22;32223;53.654;10.014;2023-04-01T02:31:34;9.40;99.90
46508;DHT22;32223;53.654;10.014;2023-04-01T02:34:00;9.40;99.90
46508;DHT22;32223;53.654;10.014;2023-04-01T02:36:26;9.40;99.90
46508;DHT22;32223;53.654;10.014;2023-04-01T02:38:52;9.40;99.90
46508;DHT22;32223;53.654;10.014;2023-04-01T02:41:19;9.40;99.90
46508;DHT22;32223;53.654;10.014;2023-04-01T02:43:46;9.40;99.90
46508;DHT22;32223;53.654;10.014;2023-04-01T02:46:12;9.40;99.90
46508;DHT22;32223;53.654;10.014;2023-04-01T02:48:37;9.40;99.90
46508;DHT22;32223;53.654;10.014;2023-04-01T02:51:03;9.30;99.90
46508;DHT22;32223;53.654;10.014;2023-04-01T02:53:29;9.40;99.90
46508;DHT22;32223;53.654;10.014;2023-04-01T02:55:55;9.40;99.90
46508;DHT22;32223;53.654;10.014;2023-04-01T02:58:21;9.40;99.90
46508;DHT22;32223;53.654;10.014;2023-04-01T03:00:46;9.40;99.90
46508;DHT22;32223;53.654;10.014;2023-04-01T03:03:12;9.40;99.90
46508;DHT22;32223;53.654;10.014;2023-04-01T03:05:39;9.40;99.90
46508;DHT22;32223;53.654;10.014;2023-04-01T03:08:05;9.30;99.90
46508;DHT22;32223;53.654;10.014;2023-04-01T03:10:31;9.30;99.90
46508;DHT22;32223;53.654;10.014;2023-04-01T03:12:57;9.30;99.90
46508;DHT22;32223;53.654;10.014;2023-04-01T03:15:22;9.30;99.90
46508;DHT22;32223;53.654;10.014;2023-04-01T03:17:48;9.40;99.90
46508;DHT22;32223;53.654;10.014;2023-04-01T03:20:14;9.30;99.90
46508;DHT22;32223;53.654;10.014;2023-04-01T03:22:40;9.30;99.90
46508;DHT22;32223;53.654;10.014;2023-04-01T03:25:06;9.30;99.90
46508;DHT22;32223;53.654;10.014;2023-04-01T03:27:34;9.30;99.90
46508;DHT22;32223;53.654;10.014;2023-04-01T03:30:01;9.30;99.90
46508;DHT22;32223;53.654;10.014;2023-04-01T03:32:27;9.30;99.90
46508;DHT22;32223;53.654;10.014;2023-04-01T03:34:53;9.30;99.90
46508;DHT22;32223;53.654;10.014;2023-04-01T03:37:18;9.30;99.90
46508;DHT22;32223;53.654;10.014;2023-04-01T03:39:44;9.30;99.90
46508;DHT22;32223;53.654;10.014;2023-04-01T03:42:10;9.30;99.90
46508;DHT22;32223;53.654;10.014;2023-04-01T03:44:36;9.30;99.90
46508;DHT22;32223;53.654;10.014;2023-04-01T03:47:02;9.30;99.90
46508;DHT22;32223;53.654;10.014;2023-04-01T03:49:28;9.30;99.90
46508;DHT22;32223;53.654;10.014;2023-04-01T03:51:54;9.30;99.90
46508;DHT22;32223;53.654;10.014;2023-04-01T03:54:20;9.30;99.90
46508;DHT22;32223;53.654;10.014;2023-04-01T03:56:46;9.30;99.90
46508;DHT22;32223;53.654;10.014;2023-04-01T03:59:12;9.30;99.90
46508;DHT22;32223;53.654;10.014;2023-04-01T04:01:38;9.30;99.90
46508;DHT22;32223;53.654;10.014;2023-04-01T04:04:04;9.30;99.90
46508;DHT22;32223;53.654;10.014;2023-04-01T04:06:30;9.30;99.90
46508;DHT22;32223;53.654;10.014;2023-04-01T04:08:56;9.30;99.90
46508;DHT22;32223;53.654;10.014;2023-04-01T04:11:22;9.30;99.90
46508;DHT22;32223;53.654;10.014;2023-04-01T04:13:48;9.30;99.90
46508;DHT22;32223;53.654;10.014;2023-04-01T04:16:15;9.30;99.90
46508;DHT22;32223;53.654;10.014;2023-04-01T04:18:41;9.30;99.90
46508;DHT22;32223;53.654;10.014;2023-04-01T04:21:06;9.30;99.90
46508;DHT22;32223;53.654;10.014;2023-04-01T04:23:33;9.20;99.90
46508;DHT22;32223;53.654;10.014;2023-04-01T04:26:00;9.20;99.90
46508;DHT22;32223;53.654;10.014;2023-04-01T04:28:27;9.30;99.90
46508;DHT22;32223;53.654;10.014;2023-04-01T04:30:53;9.30;99.90
46508;DHT22;32223;53.654;10.014;2023-04-01T04:33:19;9.30;99.90
46508;DHT22;32223;53.654;10.014;2023-04-01T04:35:45;9.30;99.90
46508;DHT22;32223;53.654;10.014;2023-04-01T04:38:11;9.20;99.90
46508;DHT22;32223;53.654;10.014;2023-04-01T04:40:38;9.20;99.90
46508;DHT22;32223;53.654;10.014;2023-04-01T04:43:04;9.10;99.90
46508;DHT22;32223;53.654;10.014;2023-04-01T04:45:30;9.00;99.90
46508;DHT22;32223;53.654;10.014;2023-04-01T04:47:56;8.80;99.90
46508;DHT22;32223;53.654;10.014;2023-04-01T04:50:22;8.70;99.90
46508;DHT22;32223;53.654;10.014;2023-04-01T04:52:48;8.60;99.90
46508;DHT22;32223;53.654;10.014;2023-04-01T04:55:14;8.50;99.90
46508;DHT22;32223;53.654;10.014;2023-04-01T04:57:40;8.40;99.90
46508;DHT22;32223;53.654;10.014;2023-04-01T05:00:06;8.30;99.90
46508;DHT22;32223;53.654;10.014;2023-04-01T05:02:33;8.20;99.90
46508;DHT22;32223;53.654;10.014;2023-04-01T05:04:58;8.10;99.90
46508;DHT22;32223;53.654;10.014;2023-04-01T05:07:24;8.00;99.90
46508;DHT22;32223;53.654;10.014;2023-04-01T05:09:49;7.90;99.90
46508;DHT22;32223;53.654;10.014;2023-04-01T05:12:15;7.80;99.90
46508;DHT22;32223;53.654;10.014;2023-04-01T05:14:41;7.80;99.90
46508;DHT22;32223;53.654;10.014;2023-04-01T05:17:11;7.70;99.90
46508;DHT22;32223;53.654;10.014;2023-04-01T05:19:37;7.70;99.90
46508;DHT22;32223;53.654;10.014;2023-04-01T05:22:03;7.60;99.90
46508;DHT22;32223;53.654;10.014;2023-04-01T05:24:29;7.50;99.90
46508;DHT22;32223;53.654;10.014;2023-04-01T05:26:54;7.50;99.90
46508;DHT22;32223;53.654;10.014;2023-04-01T05:29:21;7.50;99.90
46508;DHT22;32223;53.654;10.014;2023-04-01T05:31:47;7.40;99.90
46508;DHT22;32223;53.654;10.014;2023-04-01T05:34:13;7.40;99.90
46508;DHT22;32223;53.654;10.014;2023-04-01T05:36:39;7.30;99.90
46508;DHT22;32223;53.654;10.014;2023-04-01T05:39:05;7.30;99.90
46508;DHT22;32223;53.654;10.014;2023-04-01T05:41:30;7.20;99.90
46508;DHT22;32223;53.654;10.014;2023-04-01T05:43:56;7.20;99.90
46508;DHT22;32223;53.654;10.014;2023-04-01T05:46:22;7.20;99.90
46508;DHT22;32223;53.654;10.014;2023-04-01T05:48:47;7.00;99.90
46508;DHT22;32223;53.654;10.014;2023-04-01T05:51:14;7.00;99.90
46508;DHT22;32223;53.654;10.014;2023-04-01T05:53:40;7.00;99.90
46508;DHT22;32223;53.654;10.014;2023-04-01T05:56:06;7.00;99.90
46508;DHT22;32223;53.654;10.014;2023-04-01T05:58:33;6.90;99.90
46508;DHT22;32223;53.654;10.014;2023-04-01T06:01:08;6.90;99.90
46508;DHT22;32223;53.654;10.014;2023-04-01T06:03:35;6.80;99.90
46508;DHT22;32223;53.654;10.014;2023-04-01T06:06:01;6.80;99.90
46508;DHT22;32223;53.654;10.014;2023-04-01T06:08:27;6.80;99.90
46508;DHT22;32223;53.654;10.014;2023-04-01T06:11:00;6.80;99.90
46508;DHT22;32223;53.654;10.014;2023-04-01T06:13:47;6.80;99.90
46508;DHT22;32223;53.654;10.014;2023-04-01T06:16:34;6.70;99.90
46508;DHT22;32223;53.654;10.014;2023-04-01T06:19:23;6.70;99.90
46508;DHT22;32223;53.654;10.014;2023-04-01T06:22:19;6.60;99.90
46508;DHT22;32223;53.654;10.014;2023-04-01T06:25:01;6.60;99.90
46508;DHT22;32223;53.654;10.014;2023-04-01T06:27:56;6.50;99.90
46508;DHT22;32223;53.654;10.014;2023-04-01T06:30:41;6.50;99.90
46508;DHT22;32223;53.654;10.014;2023-04-01T06:33:32;6.50;99.90
46508;DHT22;32223;53.654;10.014;2023-04-01T06:36:06;6.40;99.90
46508;DHT22;32223;53.654;10.014;2023-04-01T06:41:09;6.40;99.90
46508;DHT22;32223;53.654;10.014;2023-04-01T06:44:04;6.40;99.90
46508;DHT22;32223;53.654;10.014;2023-04-01T06:52:23;6.40;99.90
46508;DHT22;32223;53.654;10.014;2023-04-01T06:55:23;6.40;99.90
46508;DHT22;32223;53.654;10.014;2023-04-01T06:57:57;6.30;99.90
46508;DHT22;32223;53.654;10.014;2023-04-01T07:00:31;6.30;99.90
46508;DHT22;32223;53.654;10.014;2023-04-01T07:05:34;6.30;99.90
46508;DHT22;32223;53.654;10.014;2023-04-01T07:08:03;6.20;99.90
46508;DHT22;32223;53.654;10.014;2023-04-01T07:13:48;6.30;99.90
46508;DHT22;32223;53.654;10.014;2023-04-01T07:16:16;6.30;99.90
46508;DHT22;32223;53.654;10.014;2023-04-01T07:18:54;6.30;99.90
46508;DHT22;32223;53.654;10.014;2023-04-01T07:21:28;6.30;99.90
46508;DHT22;32223;53.654;10.014;2023-04-01T07:23:58;6.30;99.90
46508;DHT22;32223;53.654;10.014;2023-04-01T07:26:26;6.20;99.90
46508;DHT22;32223;53.654;10.014;2023-04-01T07:28:53;6.20;99.90
46508;DHT22;32223;53.654;10.014;2023-04-01T07:34:27;6.20;99.90
46508;DHT22;32223;53.654;10.014;2023-04-01T07:45:23;6.20;99.90
46508;DHT22;32223;53.654;10.014;2023-04-01T07:48:02;6.30;99.90
46508;DHT22;32223;53.654;10.014;2023-04-01T07:50:53;6.10;99.90
46508;DHT22;32223;53.654;10.014;2023-04-01T07:56:35;6.10;99.90
46508;DHT22;32223;53.654;10.014;2023-04-01T08:01:51;6.10;99.90
46508;DHT22;32223;53.654;10.014;2023-04-01T08:10:11;6.10;99.90
46508;DHT22;32223;53.654;10.014;2023-04-01T08:21:32;6.10;99.90
46508;DHT22;32223;53.654;10.014;2023-04-01T08:24:47;6.10;99.90
46508;DHT22;32223;53.654;10.014;2023-04-01T08:26:57;6.20;99.90
46508;DHT22;32223;53.654;10.014;2023-04-01T08:29:41;6.20;99.90
46508;DHT22;32223;53.654;10.014;2023-04-01T08:32:12;6.20;99.90
46508;DHT22;32223;53.654;10.014;2023-04-01T08:35:31;6.20;99.90
46508;DHT22;32223;53.654;10.014;2023-04-01T08:37:50;6.20;99.90
46508;DHT22;32223;53.654;10.014;2023-04-01T08:48:21;6.30;99.90
46508;DHT22;32223;53.654;10.014;2023-04-01T08:51:09;6.20;99.90
46508;DHT22;32223;53.654;10.014;2023-04-01T08:56:47;6.10;99.90
46508;DHT22;32223;53.654;10.014;2023-04-01T09:12:52;6.20;99.90
46508;DHT22;32223;53.654;10.014;2023-04-01T09:51:26;6.40;99.90
46508;DHT22;32223;53.654;10.014;2023-04-01T10:23:09;6.80;99.90
46508;DHT22;32223;53.654;10.014;2023-04-01T10:28:43;6.70;99.90
46508;DHT22;32223;53.654;10.014;2023-04-01T10:31:32;6.80;99.90
46508;DHT22;32223;53.654;10.014;2023-04-01T10:57:02;6.70;99.90
46508;DHT22;32223;53.654;10.014;2023-04-01T10:59:57;6.70;99.90
46508;DHT22;32223;53.654;10.014;2023-04-01T11:03:40;6.70;99.90
46508;DHT22;32223;53.654;10.014;2023-04-01T11:30:20;6.70;99.90
46508;DHT22;32223;53.654;10.014;2023-04-01T11:33:28;6.60;99.90
46508;DHT22;32223;53.654;10.014;2023-04-01T12:06:19;6.20;99.90
46508;DHT22;32223;53.654;10.014;2023-04-01T12:37:12;5.90;99.90
46508;DHT22;32223;53.654;10.014;2023-04-01T12:56:53;5.80;99.90
46508;DHT22;32223;53.654;10.014;2023-04-01T13:03:01;5.90;99.90
46508;DHT22;32223;53.654;10.014;2023-04-01T13:16:31;5.70;99.90
46508;DHT22;32223;53.654;10.014;2023-04-01T13:19:17;5.70;99.90
46508;DHT22;32223;53.654;10.014;2023-04-01T13:24:35;5.70;99.90
46508;DHT22;32223;53.654;10.014;2023-04-01T13:27:22;5.60;99.90
46508;DHT22;32223;53.654;10.014;2023-04-01T13:39:53;5.50;99.90
46508;DHT22;32223;53.654;10.014;2023-04-01T13:45:08;5.50;99.90
46508;DHT22;32223;53.654;10.014;2023-04-01T13:54:00;5.60;99.90
46508;DHT22;32223;53.654;10.014;2023-04-01T13:56:33;5.50;99.90
46508;DHT22;32223;53.654;10.014;2023-04-01T14:07:56;5.50;99.90
46508;DHT22;32223;53.654;10.014;2023-04-01T14:11:21;5.50;99.90
46508;DHT22;32223;53.654;10.014;2023-04-01T14:13:43;5.60;99.90
46508;DHT22;32223;53.654;10.014;2023-04-01T14:16:42;5.60;99.90
46508;DHT22;32223;53.654;10.014;2023-04-01T14:27:59;5.40;99.90
46508;DHT22;32223;53.654;10.014;2023-04-01T14:34:18;5.50;99.90
46508;DHT22;32223;53.654;10.014;2023-04-01T14:36:27;5.50;99.90
46508;DHT22;32223;53.654;10.014;2023-04-01T14:39:15;5.50;99.90
46508;DHT22;32223;53.654;10.014;2023-04-01T14:48:00;5.50;99.90
46508;DHT22;32223;53.654;10.014;2023-04-01T14:50:47;5.50;99.90
46508;DHT22;32223;53.654;10.014;2023-04-01T14:53:38;5.50;99.90
46508;DHT22;32223;53.654;10.014;2023-04-01T14:56:07;5.50;99.90
46508;DHT22;32223;53.654;10.014;2023-04-01T14:58:49;5.50;99.90
46508;DHT22;32223;53.654;10.014;2023-04-01T15:25:32;5.00;99.90
46508;DHT22;32223;53.654;10.014;2023-04-01T15:28:10;5.00;99.90
46508;DHT22;32223;53.654;10.014;2023-04-01T15:31:03;5.10;99.90
46508;DHT22;32223;53.654;10.014;2023-04-01T15:36:57;5.00;99.90
46508;DHT22;32223;53.654;10.014;2023-04-01T15:47:28;4.90;99.90
46508;DHT22;32223;53.654;10.014;2023-04-01T15:55:37;5.00;99.90
46508;DHT22;32223;53.654;10.014;2023-04-01T15:58:31;5.00;99.90
46508;DHT22;32223;53.654;10.014;2023-04-01T16:03:36;5.00;99.90
46508;DHT22;32223;53.654;10.014;2023-04-01T16:12:30;5.00;99.90
46508;DHT22;32223;53.654;10.014;2023-04-01T16:20:23;4.90;99.90
46508;DHT22;32223;53.654;10.014;2023-04-01T16:23:20;4.90;99.90
46508;DHT22;32223;53.654;10.014;2023-04-01T16:26:05;4.90;99.90
46508;DHT22;32223;53.654;10.014;2023-04-01T16:32:08;4.70;99.90
46508;DHT22;32223;53.654;10.014;2023-04-01T16:37:38;4.60;99.90
46508;DHT22;32223;53.654;10.014;2023-04-01T16:40:25;4.60;99.90
46508;DHT22;32223;53.654;10.014;2023-04-01T16:43:28;4.60;99.90
46508;DHT22;32223;53.654;10.014;2023-04-01T16:46:18;4.50;99.90
46508;DHT22;32223;53.654;10.014;2023-04-01T16:59:37;4.40;99.90
46508;DHT22;32223;53.654;10.014;2023-04-01T17:02:04;4.40;99.90
46508;DHT22;32223;53.654;10.014;2023-04-01T17:21:24;4.40;99.90
46508;DHT22;32223;53.654;10.014;2023-04-01T17:23:52;4.30;99.90
46508;DHT22;32223;53.654;10.014;2023-04-01T17:26:37;4.30;99.90
46508;DHT22;32223;53.654;10.014;2023-04-01T17:37:31;4.20;99.90
46508;DHT22;32223;53.654;10.014;2023-04-01T17:48:39;4.10;99.90
46508;DHT22;32223;53.654;10.014;2023-04-01T17:59:36;4.10;99.90
46508;DHT22;32223;53.654;10.014;2023-04-01T18:02:40;4.10;99.90
46508;DHT22;32223;53.654;10.014;2023-04-01T18:07:59;4.00;99.90
46508;DHT22;32223;53.654;10.014;2023-04-01T18:13:44;3.90;99.90
46508;DHT22;32223;53.654;10.014;2023-04-01T18:19:02;3.90;99.90
46508;DHT22;32223;53.654;10.014;2023-04-01T18:21:53;3.80;99.90
46508;DHT22;32223;53.654;10.014;2023-04-01T18:27:17;3.80;99.90
46508;DHT22;32223;53.654;10.014;2023-04-01T18:37:19;3.70;99.90
46508;DHT22;32223;53.654;10.014;2023-04-01T18:54:32;3.60;99.90
46508;DHT22;32223;53.654;10.014;2023-04-01T18:57:07;3.60;99.90
46508;DHT22;32223;53.654;10.014;2023-04-01T18:59:52;3.60;99.90
46508;DHT22;32223;53.654;10.014;2023-04-01T19:02:43;3.60;99.90
46508;DHT22;32223;53.654;10.014;2023-04-01T19:07:47;3.60;99.90
46508;DHT22;32223;53.654;10.014;2023-04-01T19:13:21;3.50;99.90
46508;DHT22;32223;53.654;10.014;2023-04-01T19:24:35;3.40;99.90
46508;DHT22;32223;53.654;10.014;2023-04-01T19:27:12;3.40;99.90
46508;DHT22;32223;53.654;10.014;2023-04-01T19:30:02;3.30;99.90
46508;DHT22;32223;53.654;10.014;2023-04-01T19:32:58;3.30;99.90
46508;DHT22;32223;53.654;10.014;2023-04-01T19:38:38;3.30;99.90
46508;DHT22;32223;53.654;10.014;2023-04-01T19:49:43;3.30;99.90
46508;DHT22;32223;53.654;10.014;2023-04-01T19:52:33;3.30;99.90
46508;DHT22;32223;53.654;10.014;2023-04-01T19:55:15;3.30;
46508;DHT22;32223;53.654;10.014;2023-04-01T20:00:43;3.20;99.90
46508;DHT22;32223;53.654;10.014;2023-04-01T20:09:10;3.00;99.90
46508;DHT22;32223;53.654;10.014;2023-04-01T20:12:00;2.90;99.90
46508;DHT22;32223;53.654;10.014;2023-04-01T20:14:45;2.80;99.90
46508;DHT22;32223;53.654;10.014;2023-04-01T20:17:38;2.80;99.90
46508;DHT22;32223;53.654;10.014;2023-04-01T20:23:41;2.70;99.90
46508;DHT22;32223;53.654;10.014;2023-04-01T20:25:47;2.60;99.90
46508;DHT22;32223;53.654;10.014;2023-04-01T20:28:22;2.50;99.90
46508;DHT22;32223;53.654;10.014;2023-04-01T20:31:21;2.40;99.90
46508;DHT22;32223;53.654;10.014;2023-04-01T20:42:02;2.20;99.90
46508;DHT22;32223;53.654;10.014;2023-04-01T21:04:15;1.80;99.90
46508;DHT22;32223;53.654;10.014;2023-04-01T21:06:52;1.80;99.90
46508;DHT22;32223;53.654;10.014;2023-04-01T21:28:39;1.60;99.90
46508;DHT22;32223;53.654;10.014;2023-04-01T21:31:33;1.60;99.90
46508;DHT22;32223;53.654;10.014;2023-04-01T21:42:38;1.60;99.90
46508;DHT22;32223;53.654;10.014;2023-04-01T21:45:28;1.60;99.90
46508;DHT22;32223;53.654;10.014;2023-04-01T22:21:29;1.20;99.90
46508;DHT22;32223;53.654;10.014;2023-04-01T22:27:01;1.10;99.90
46508;DHT22;32223;53.654;10.014;2023-04-01T22:32:08;1.10;99.90
46508;DHT22;32223;53.654;10.014;2023-04-01T22:37:42;1.10;99.90
46508;DHT22;32223;53.654;10.014;2023-04-01T22:40:21;1.20;99.90
46508;DHT22;32223;53.654;10.014;2023-04-01T22:42:56;1.10;99.90
46508;DHT22;32223;53.654;10.014;2023-04-01T22:53:59;1.10;99.90
46508;DHT22;32223;53.654;10.014;2023-04-01T22:56:37;1.10;99.90
46508;DHT22;32223;53.654;10.014;2023-04-01T23:01:34;1.10;99.90
46508;DHT22;32223;53.654;10.014;2023-04-01T23:04:04;1.00;99.90
46508;DHT22;32223;53.654;10.014;2023-04-01T23:06:37;1.10;99.90
46508;DHT22;32223;53.654;10.014;2023-04-01T23:09:08;1.10;99.90
46508;DHT22;32223;53.654;10.014;2023-04-01T23:22:12;1.10;99.90
46508;DHT22;32223;53.654;10.014;2023-04-01T23:24:53;1.10;99.90
46508;DHT22;32223;53.654;10.014;2023-04-01T23:29:51;1.10;99.90
46508;DHT22;32223;53.654;10.014;2023-04-01T23:32:24;1.10;99.90
46508;DHT22;32223;53.654;10.014;2023-04-01T23:34:53;1.10;99.90
46508;DHT22;32223;53.654;10.014;2023-04-01T23:37:21;1.10;99.90
46508;DHT22;32223;53.654;10.014;2023-04-01T23:39:56;1.10;99.90
46508;DHT22;32223;53.654;10.014;2023-04-01T23:42:29;1.00;99.90
46508;DHT22;32223;53.654;10.014;2023-04-01T23:44:58;1.10;99.90
46508;DHT22;32223;53.654;10.014;2023-04-01T23:47:33;1.00;99.90
46508;DHT22;32223;53.654;10.014;2023-04-01T23:50:07;1.00;99.90
46508;DHT22;32223;53.654;10.014;2023-04-01T23:52:39;1.10;99.90
46508;DHT22;32223;53.654;10.014;2023-04-01T23:55:31;1.10;99.90
